createdAt,value
2023-06-21T00:00:01.372Z,16.3
2023-06-21T00:01:06.888Z,16.4
2023-06-21T00:02:01.045Z,16.3
2023-06-21T00:03:01.152Z,16.1
2023-06-21T00:04:01.918Z,16.2
2023-06-21T00:05:01.948Z,16.2
2023-06-21T00:06:09.975Z,16.2
2023-06-21T00:07:01.374Z,16.2
2023-06-21T00:08:01.110Z,16.1
2023-06-21T00:09:01.139Z,16.3
2023-06-21T00:10:01.237Z,16.3
2023-06-21T00:11:12.838Z,16.2
2023-06-21T00:12:01.113Z,16.2
2023-06-21T00:13:00.827Z,16.3
2023-06-21T00:14:00.438Z,16.1
2023-06-21T00:15:00.115Z,16.2
2023-06-21T00:16:14.902Z,16.5
2023-06-21T00:17:01.045Z,16.7
2023-06-21T00:18:01.414Z,17
2023-06-21T00:19:01.313Z,17.1
2023-06-21T00:20:04.030Z,17.3
2023-06-21T00:21:16.736Z,17.4
2023-06-21T00:22:01.077Z,17.7
2023-06-21T00:23:01.082Z,17.7
2023-06-21T00:24:01.192Z,17.7
2023-06-21T00:25:01.443Z,17.8
2023-06-21T00:26:01.106Z,18
2023-06-21T00:27:01.113Z,17.9
2023-06-21T00:28:01.170Z,18
2023-06-21T00:29:01.130Z,17.9
2023-06-21T00:30:01.141Z,17.8
2023-06-21T00:31:01.319Z,17.9
2023-06-21T00:32:01.054Z,17.8
2023-06-21T00:33:01.808Z,17.8
2023-06-21T00:34:01.728Z,17.7
2023-06-21T00:35:01.070Z,17.5
2023-06-21T00:36:01.064Z,17.6
2023-06-21T00:37:01.077Z,17.7
2023-06-21T00:38:01.206Z,17.5
2023-06-21T00:39:01.199Z,17.4
2023-06-21T00:40:01.206Z,17.4
2023-06-21T00:41:01.213Z,17.3
2023-06-21T00:42:01.180Z,17.3
2023-06-21T00:43:01.065Z,17.1
2023-06-21T00:44:01.184Z,16.9
2023-06-21T00:45:01.356Z,17.1
2023-06-21T00:46:01.117Z,17.2
2023-06-21T00:47:02.587Z,17.2
2023-06-21T00:48:01.890Z,17.1
2023-06-21T00:49:01.816Z,17.3
2023-06-21T00:50:02.091Z,17
2023-06-21T00:51:01.153Z,17
2023-06-21T00:52:01.042Z,17.4
2023-06-21T00:53:01.036Z,17.6
2023-06-21T00:54:01.116Z,17.4
2023-06-21T00:55:01.089Z,17.5
2023-06-21T00:56:01.473Z,17.5
2023-06-21T00:57:01.014Z,17.5
2023-06-21T00:58:01.113Z,17.7
2023-06-21T00:59:01.038Z,17.7
2023-06-21T01:00:00.710Z,17.9
2023-06-21T01:01:00.299Z,18
2023-06-21T01:01:59.933Z,18.1
2023-06-21T01:02:59.775Z,18.4
2023-06-21T01:04:01.725Z,18.4
2023-06-21T01:05:01.864Z,18.5
2023-06-21T01:06:01.986Z,18.6
2023-06-21T01:07:01.083Z,18.8
2023-06-21T01:08:01.086Z,19
2023-06-21T01:09:00.761Z,19.1
2023-06-21T01:10:00.428Z,19.1
2023-06-21T01:11:00.072Z,19.4
2023-06-21T01:12:00.097Z,19.5
2023-06-21T01:13:00.114Z,19.5
2023-06-21T01:13:59.901Z,19.6
2023-06-21T01:14:59.699Z,19.6
2023-06-21T01:16:01.565Z,19.8
2023-06-21T01:17:01.341Z,19.6
2023-06-21T01:18:01.823Z,19.7
2023-06-21T01:19:01.088Z,19.6
2023-06-21T01:20:01.061Z,19.4
2023-06-21T01:21:01.065Z,19.5
2023-06-21T01:22:01.085Z,19.4
2023-06-21T01:23:00.751Z,19.3
2023-06-21T01:24:00.750Z,19.5
2023-06-21T01:25:01.878Z,19.6
2023-06-21T01:25:59.537Z,19.7
2023-06-21T01:27:01.133Z,20
2023-06-21T01:28:01.096Z,20.2
2023-06-21T01:29:01.121Z,20.1
2023-06-21T01:30:01.156Z,20.3
2023-06-21T01:31:01.156Z,20.3
2023-06-21T01:32:01.295Z,20.2
2023-06-21T01:33:01.215Z,20.1
2023-06-21T01:34:03.923Z,20.2
2023-06-21T01:35:01.048Z,20
2023-06-21T01:36:01.054Z,20.1
2023-06-21T01:37:01.063Z,20
2023-06-21T01:38:01.112Z,19.9
2023-06-21T01:39:02.252Z,20
2023-06-21T01:40:01.030Z,19.9
2023-06-21T01:41:01.084Z,19.8
2023-06-21T01:42:01.706Z,19.7
2023-06-21T01:43:01.536Z,19.7
2023-06-21T01:44:01.108Z,19.8
2023-06-21T01:45:01.018Z,19.8
2023-06-21T01:46:01.088Z,19.8
2023-06-21T01:47:05.142Z,19.9
2023-06-21T01:48:01.867Z,19.9
2023-06-21T01:49:01.060Z,19.7
2023-06-21T01:50:01.452Z,19.7
2023-06-21T01:51:01.179Z,19.7
2023-06-21T01:52:07.785Z,19.7
2023-06-21T01:53:01.015Z,19.7
2023-06-21T01:54:01.011Z,19.7
2023-06-21T01:55:01.075Z,19.6
2023-06-21T01:56:01.086Z,19.6
2023-06-21T01:57:09.714Z,19.6
2023-06-21T01:58:01.092Z,19.6
2023-06-21T01:59:01.039Z,19.6
2023-06-21T02:00:00.847Z,19.4
2023-06-21T02:01:01.234Z,19.5
2023-06-21T02:02:13.098Z,19.6
2023-06-21T02:03:02.217Z,19.6
2023-06-21T02:04:00.848Z,19.5
2023-06-21T02:05:01.075Z,19.3
2023-06-21T02:06:00.795Z,19.7
2023-06-21T02:07:14.244Z,19.4
2023-06-21T02:08:01.737Z,19.4
2023-06-21T02:09:01.901Z,19.1
2023-06-21T02:10:02.074Z,19.3
2023-06-21T02:11:01.088Z,19.2
2023-06-21T02:12:01.254Z,18.9
2023-06-21T02:13:01.499Z,18.9
2023-06-21T02:14:01.473Z,18.8
2023-06-21T02:15:01.446Z,18.9
2023-06-21T02:16:01.140Z,19.1
2023-06-21T02:17:01.028Z,19.3
2023-06-21T02:18:01.486Z,19.2
2023-06-21T02:19:01.138Z,19.5
2023-06-21T02:20:02.410Z,20.1
2023-06-21T02:21:01.870Z,20.4
2023-06-21T02:22:01.064Z,20
2023-06-21T02:23:00.684Z,20.6
2023-06-21T02:24:00.260Z,20.4
2023-06-21T02:25:00.257Z,20.7
2023-06-21T02:25:59.949Z,20.8
2023-06-21T02:26:59.651Z,21.1
2023-06-21T02:28:01.544Z,21.4
2023-06-21T02:29:01.299Z,21.7
2023-06-21T02:30:02.959Z,22.1
2023-06-21T02:31:02.643Z,23.3
2023-06-21T02:32:01.128Z,23.6
2023-06-21T02:33:01.185Z,23.5
2023-06-21T02:34:00.605Z,23.2
2023-06-21T02:35:00.595Z,23.2
2023-06-21T02:36:00.530Z,23.1
2023-06-21T02:37:00.114Z,23
2023-06-21T02:37:59.827Z,23.3
2023-06-21T02:39:01.473Z,23
2023-06-21T02:40:01.084Z,23.1
2023-06-21T02:41:01.074Z,22.6
2023-06-21T02:42:01.072Z,22.4
2023-06-21T02:43:01.101Z,22.5
2023-06-21T02:44:01.109Z,23.3
2023-06-21T02:45:01.366Z,23
2023-06-21T02:46:03.921Z,23.6
2023-06-21T02:47:02.256Z,23.5
2023-06-21T02:48:01.258Z,23.2
2023-06-21T02:49:01.326Z,23.4
2023-06-21T02:50:01.049Z,24
2023-06-21T02:51:01.060Z,24.7
2023-06-21T02:52:01.050Z,25.2
2023-06-21T02:53:01.772Z,25.8
2023-06-21T02:54:02.105Z,26
2023-06-21T02:55:01.364Z,26.2
2023-06-21T02:56:03.873Z,26.2
2023-06-21T02:57:01.248Z,26.4
2023-06-21T02:58:00.909Z,27.5
2023-06-21T02:59:01.830Z,27.7
2023-06-21T03:00:01.065Z,28.9
2023-06-21T03:01:01.274Z,28.9
2023-06-21T03:02:01.108Z,29
2023-06-21T03:03:01.438Z,29.1
2023-06-21T03:04:01.180Z,29.4
2023-06-21T03:05:02.026Z,29.5
2023-06-21T03:06:01.040Z,29.5
2023-06-21T03:07:01.053Z,29.7
2023-06-21T03:08:02.127Z,30
2023-06-21T03:09:02.430Z,30.2
2023-06-21T03:10:01.373Z,30.2
2023-06-21T03:11:02.081Z,30.8
2023-06-21T03:12:01.086Z,31.1
2023-06-21T03:13:01.075Z,31.3
2023-06-21T03:14:00.671Z,31.2
2023-06-21T03:15:00.554Z,31.4
2023-06-21T03:16:00.176Z,31.7
2023-06-21T03:16:59.926Z,32
2023-06-21T03:17:59.694Z,32.1
2023-06-21T03:19:02.050Z,32.4
2023-06-21T03:20:01.456Z,32.7
2023-06-21T03:21:01.041Z,32.6
2023-06-21T03:22:01.134Z,33.1
2023-06-21T03:23:01.069Z,33.5
2023-06-21T03:24:01.695Z,34.1
2023-06-21T03:25:00.761Z,34.7
2023-06-21T03:26:00.469Z,35.5
2023-06-21T03:27:00.244Z,35.6
2023-06-21T03:28:01.390Z,36.1
2023-06-21T03:29:00.825Z,36.4
2023-06-21T03:30:01.197Z,36.1
2023-06-21T03:31:02.545Z,36.2
2023-06-21T03:32:00.622Z,36.8
2023-06-21T03:33:04.379Z,37.2
2023-06-21T03:34:00.817Z,37
2023-06-21T03:35:00.523Z,36.9
2023-06-21T03:36:00.251Z,37.1
2023-06-21T03:37:00.252Z,37.3
2023-06-21T03:38:05.954Z,37.3
2023-06-21T03:39:02.546Z,37.3
2023-06-21T03:40:01.087Z,37.8
2023-06-21T03:41:01.049Z,37.8
2023-06-21T03:42:01.059Z,38.2
2023-06-21T03:43:09.962Z,37.8
2023-06-21T03:44:01.083Z,38.3
2023-06-21T03:45:01.246Z,38.5
2023-06-21T03:46:01.515Z,38.8
2023-06-21T03:47:01.484Z,38.7
2023-06-21T03:48:12.642Z,38.8
2023-06-21T03:49:01.207Z,38.8
2023-06-21T03:50:01.308Z,38.7
2023-06-21T03:51:00.961Z,38.4
2023-06-21T03:52:01.046Z,38.2
2023-06-21T03:53:15.728Z,38.4
2023-06-21T03:54:01.344Z,38.8
2023-06-21T03:55:01.652Z,38.4
2023-06-21T03:56:01.023Z,38.6
2023-06-21T03:57:01.209Z,39.7
2023-06-21T03:58:00.867Z,39.3
2023-06-21T03:59:01.082Z,38.9
2023-06-21T04:00:01.012Z,38.8
2023-06-21T04:01:01.089Z,38.9
2023-06-21T04:02:01.110Z,38.8
2023-06-21T04:03:02.074Z,38.7
2023-06-21T04:04:01.613Z,39.4
2023-06-21T04:05:01.242Z,39
2023-06-21T04:06:01.521Z,38.7
2023-06-21T04:07:01.050Z,38.6
2023-06-21T04:08:01.195Z,38.5
2023-06-21T04:09:01.052Z,38.7
2023-06-21T04:10:01.135Z,38.9
2023-06-21T04:11:01.109Z,38.2
2023-06-21T04:12:01.110Z,38.2
2023-06-21T04:13:01.072Z,38.1
2023-06-21T04:14:00.968Z,38
2023-06-21T04:15:01.494Z,38
2023-06-21T04:16:01.309Z,38.1
2023-06-21T04:17:03.994Z,38
2023-06-21T04:18:01.213Z,38.2
2023-06-21T04:19:00.722Z,38.1
2023-06-21T04:20:00.288Z,38
2023-06-21T04:20:59.904Z,37.9
2023-06-21T04:21:59.749Z,38.1
2023-06-21T04:23:01.670Z,38
2023-06-21T04:24:01.470Z,37.8
2023-06-21T04:25:01.486Z,37.9
2023-06-21T04:26:01.971Z,38.1
2023-06-21T04:27:01.061Z,37.9
2023-06-21T04:28:01.024Z,38
2023-06-21T04:29:01.028Z,38
2023-06-21T04:30:00.679Z,37.9
2023-06-21T04:31:00.394Z,37.8
2023-06-21T04:32:00.317Z,37.8
2023-06-21T04:33:01.262Z,37.8
2023-06-21T04:34:02.164Z,38.1
2023-06-21T04:35:02.044Z,38.1
2023-06-21T04:36:01.505Z,38.5
2023-06-21T04:37:01.116Z,38.5
2023-06-21T04:38:00.821Z,38.5
2023-06-21T04:39:00.413Z,38.8
2023-06-21T04:40:12.332Z,39
2023-06-21T04:41:01.242Z,39.1
2023-06-21T04:42:01.290Z,39.3
2023-06-21T04:43:01.434Z,38.7
2023-06-21T04:44:01.084Z,38.5
2023-06-21T04:45:01.087Z,38.8
2023-06-21T04:46:01.288Z,39.7
2023-06-21T04:47:01.081Z,39.5
2023-06-21T04:48:01.123Z,39.3
2023-06-21T04:49:01.108Z,39.6
2023-06-21T04:50:15.076Z,39.8
2023-06-21T04:51:01.715Z,39.9
2023-06-21T04:52:01.351Z,40
2023-06-21T04:53:01.523Z,40.3
2023-06-21T04:54:01.203Z,40.3
2023-06-21T04:55:02.707Z,40
2023-06-21T04:56:03.209Z,40.3
2023-06-21T04:57:01.447Z,40.1
2023-06-21T04:58:01.905Z,40
2023-06-21T04:59:01.082Z,40
2023-06-21T05:00:01.206Z,40
2023-06-21T05:01:02.409Z,40.1
2023-06-21T05:02:01.440Z,40.1
2023-06-21T05:03:02.199Z,40.1
2023-06-21T05:04:01.027Z,40.1
2023-06-21T05:05:01.108Z,40.1
2023-06-21T05:06:01.211Z,39.7
2023-06-21T05:07:01.110Z,39.9
2023-06-21T05:08:01.190Z,40.1
2023-06-21T05:09:01.148Z,40.1
2023-06-21T05:10:01.444Z,40.1
2023-06-21T05:11:01.858Z,40.1
2023-06-21T05:12:01.338Z,40.1
2023-06-21T05:13:01.045Z,40.2
2023-06-21T05:14:01.035Z,39.8
2023-06-21T05:15:01.056Z,38.9
2023-06-21T05:16:01.021Z,38.5
2023-06-21T05:17:01.235Z,38.4
2023-06-21T05:18:01.974Z,37.9
2023-06-21T05:19:01.032Z,37.8
2023-06-21T05:20:01.629Z,38
2023-06-21T05:21:01.109Z,38.2
2023-06-21T05:22:01.130Z,38.1
2023-06-21T05:23:01.157Z,38
2023-06-21T05:24:04.088Z,37.6
2023-06-21T05:25:01.060Z,36.3
2023-06-21T05:26:03.182Z,36.2
2023-06-21T05:27:01.071Z,35.9
2023-06-21T05:28:01.296Z,35.9
2023-06-21T05:29:06.240Z,36.3
2023-06-21T05:30:01.529Z,36.3
2023-06-21T05:31:01.101Z,36.2
2023-06-21T05:32:01.081Z,36
2023-06-21T05:33:01.101Z,35.2
2023-06-21T05:34:09.169Z,34.8
2023-06-21T05:35:00.710Z,34.9
2023-06-21T05:36:00.385Z,34.6
2023-06-21T05:37:00.064Z,34.8
2023-06-21T05:37:59.612Z,35.1
2023-06-21T05:39:12.834Z,35.8
2023-06-21T05:40:02.266Z,35.1
2023-06-21T05:41:04.602Z,34.8
2023-06-21T05:42:01.060Z,34.8
2023-06-21T05:43:01.050Z,34.7
2023-06-21T05:44:15.793Z,33.3
2023-06-21T05:45:01.471Z,32.4
2023-06-21T05:46:01.269Z,31.8
2023-06-21T05:47:00.805Z,32.1
2023-06-21T05:48:00.480Z,31.1
2023-06-21T05:49:00.063Z,29.3
2023-06-21T05:49:59.650Z,28.5
2023-06-21T05:51:01.278Z,26.7
2023-06-21T05:52:01.125Z,26.9
2023-06-21T05:53:01.105Z,26.5
2023-06-21T05:54:01.152Z,26.4
2023-06-21T05:55:01.446Z,24.7
2023-06-21T05:56:01.022Z,23.3
2023-06-21T05:57:01.045Z,23.5
2023-06-21T05:58:01.040Z,23
2023-06-21T05:59:01.062Z,22.7
2023-06-21T06:00:00.768Z,22.1
2023-06-21T06:01:08.983Z,21.8
2023-06-21T06:02:01.793Z,21.3
2023-06-21T06:03:01.117Z,21.6
2023-06-21T06:04:01.128Z,21.6
2023-06-21T06:05:01.447Z,21.4
2023-06-21T06:06:02.651Z,21.5
2023-06-21T06:07:01.107Z,22
2023-06-21T06:08:01.057Z,21.9
2023-06-21T06:09:01.124Z,21.5
2023-06-21T06:10:01.159Z,21.8
2023-06-21T06:11:02.471Z,22.4
2023-06-21T06:12:01.534Z,22.1
2023-06-21T06:13:01.729Z,21.5
2023-06-21T06:14:02.643Z,22.1
2023-06-21T06:15:01.559Z,22.5
2023-06-21T06:16:02.263Z,23.1
2023-06-21T06:17:01.065Z,22
2023-06-21T06:18:00.868Z,21.8
2023-06-21T06:19:01.069Z,22.1
2023-06-21T06:20:00.793Z,21.6
2023-06-21T06:21:00.588Z,21.7
2023-06-21T06:22:00.491Z,21.3
2023-06-21T06:23:00.252Z,21.7
2023-06-21T06:24:00.260Z,22
2023-06-21T06:24:59.867Z,21.6
2023-06-21T06:25:59.668Z,21.5
2023-06-21T06:27:01.869Z,21.6
2023-06-21T06:28:01.325Z,21.9
2023-06-21T06:29:01.147Z,21.1
2023-06-21T06:30:01.047Z,22
2023-06-21T06:31:01.516Z,22.4
2023-06-21T06:32:01.394Z,22.7
2023-06-21T06:33:01.141Z,21.9
2023-06-21T06:34:01.077Z,22
2023-06-21T06:35:01.045Z,21.8
2023-06-21T06:36:01.097Z,22.3
2023-06-21T06:37:12.148Z,22.6
2023-06-21T06:38:01.100Z,22.6
2023-06-21T06:39:01.100Z,22.6
2023-06-21T06:40:01.036Z,22.6
2023-06-21T06:41:00.667Z,22.6
2023-06-21T06:42:00.510Z,22.3
2023-06-21T06:43:00.091Z,22.7
2023-06-21T06:43:59.709Z,23.5
2023-06-21T06:45:01.777Z,22
2023-06-21T06:46:01.100Z,22.2
2023-06-21T06:47:01.220Z,22.3
2023-06-21T06:48:01.914Z,22.2
2023-06-21T06:49:01.647Z,22.2
2023-06-21T06:50:00.663Z,22.5
2023-06-21T06:51:00.396Z,21.3
2023-06-21T06:52:00.060Z,21.4
2023-06-21T06:52:59.752Z,21.4
2023-06-21T06:54:03.712Z,20.5
2023-06-21T06:55:01.348Z,20.3
2023-06-21T06:56:01.253Z,19.3
2023-06-21T06:57:01.532Z,19.8
2023-06-21T06:58:06.160Z,19.7
2023-06-21T06:59:02.391Z,19.7
2023-06-21T07:00:01.163Z,20
2023-06-21T07:01:01.957Z,19.8
2023-06-21T07:02:01.151Z,19.3
2023-06-21T07:03:01.134Z,19.6
2023-06-21T07:04:01.133Z,19.7
2023-06-21T07:05:01.046Z,19.5
2023-06-21T07:06:01.079Z,19.2
2023-06-21T07:07:01.152Z,18.8
2023-06-21T07:08:01.112Z,19
2023-06-21T07:09:01.180Z,19.2
2023-06-21T07:10:02.075Z,19.2
2023-06-21T07:11:01.102Z,19.1
2023-06-21T07:12:01.125Z,19.2
2023-06-21T07:13:01.064Z,19.5
2023-06-21T07:14:01.063Z,19.5
2023-06-21T07:15:05.429Z,19.2
2023-06-21T07:16:01.389Z,19.6
2023-06-21T07:17:01.423Z,19.4
2023-06-21T07:18:01.491Z,18.6
2023-06-21T07:19:01.174Z,18.9
2023-06-21T07:20:07.894Z,19
2023-06-21T07:21:01.880Z,18.8
2023-06-21T07:22:01.036Z,18.5
2023-06-21T07:23:01.461Z,18.3
2023-06-21T07:24:00.695Z,18.3
2023-06-21T07:25:10.309Z,18.4
2023-06-21T07:26:02.116Z,19.1
2023-06-21T07:27:01.180Z,18.9
2023-06-21T07:28:01.126Z,19.1
2023-06-21T07:29:01.144Z,18.7
2023-06-21T07:30:14.261Z,19.1
2023-06-21T07:31:01.145Z,18.8
2023-06-21T07:32:01.046Z,18.8
2023-06-21T07:33:01.127Z,18.8
2023-06-21T07:34:03.312Z,18.4
2023-06-21T07:35:01.022Z,18.3
2023-06-21T07:36:02.114Z,18.2
2023-06-21T07:37:01.837Z,18.2
2023-06-21T07:38:01.044Z,18
2023-06-21T07:39:01.019Z,17.9
2023-06-21T07:40:01.015Z,18.3
2023-06-21T07:41:01.110Z,17.5
2023-06-21T07:42:12.653Z,17.4
2023-06-21T07:43:01.131Z,17.5
2023-06-21T07:44:01.167Z,17.5
2023-06-21T07:45:01.468Z,17.7
2023-06-21T07:46:14.530Z,17.5
2023-06-21T07:47:01.072Z,17.5
2023-06-21T07:48:01.611Z,17.5
2023-06-21T07:49:01.058Z,17.5
2023-06-21T07:50:09.292Z,17.5
2023-06-21T07:51:01.474Z,16.7
2023-06-21T07:52:01.904Z,16.2
2023-06-21T07:53:01.466Z,15.6
2023-06-21T07:54:01.923Z,15.7
2023-06-21T07:55:01.120Z,15.3
2023-06-21T07:56:01.109Z,14.8
2023-06-21T07:57:01.112Z,14.8
2023-06-21T07:58:01.107Z,15.1
2023-06-21T07:59:01.453Z,14
2023-06-21T08:00:01.173Z,13.6
2023-06-21T08:01:01.050Z,13.7
2023-06-21T08:02:00.805Z,14
2023-06-21T08:03:01.055Z,13.7
2023-06-21T08:04:01.104Z,12.9
2023-06-21T08:05:01.089Z,12.7
2023-06-21T08:06:01.317Z,12.7
2023-06-21T08:07:01.066Z,12.8
2023-06-21T08:08:01.122Z,13.1
2023-06-21T08:09:02.157Z,12.8
2023-06-21T08:10:01.789Z,12.8
2023-06-21T08:11:01.986Z,13.2
2023-06-21T08:12:01.392Z,12.3
2023-06-21T08:13:01.130Z,12.4
2023-06-21T08:14:01.140Z,12.3
2023-06-21T08:15:01.145Z,12.5
2023-06-21T08:16:01.034Z,12.3
2023-06-21T08:17:01.035Z,12.5
2023-06-21T08:18:01.473Z,12.7
2023-06-21T08:19:01.055Z,12.6
2023-06-21T08:20:01.089Z,12.8
2023-06-21T08:21:00.756Z,12.6
2023-06-21T08:22:00.497Z,12.1
2023-06-21T08:23:00.276Z,12.6
2023-06-21T08:23:59.942Z,12
2023-06-21T08:24:59.526Z,12
2023-06-21T08:26:01.850Z,11.8
2023-06-21T08:27:01.205Z,11.8
2023-06-21T08:28:01.173Z,11.3
2023-06-21T08:29:01.117Z,11.6
2023-06-21T08:30:01.144Z,12
2023-06-21T08:31:01.136Z,11.9
2023-06-21T08:32:01.292Z,11.9
2023-06-21T08:33:02.419Z,11.7
2023-06-21T08:34:01.043Z,11.8
2023-06-21T08:35:01.051Z,11.3
2023-06-21T08:36:01.450Z,11.5
2023-06-21T08:37:01.082Z,11.1
2023-06-21T08:38:08.840Z,11.6
2023-06-21T08:39:01.081Z,12
2023-06-21T08:40:01.149Z,11.8
2023-06-21T08:41:01.481Z,11.4
2023-06-21T08:42:00.995Z,11.3
2023-06-21T08:43:01.174Z,11.3
2023-06-21T08:44:01.182Z,11.3
2023-06-21T08:45:01.485Z,11.5
2023-06-21T08:46:01.142Z,11.5
2023-06-21T08:47:01.034Z,10.7
2023-06-21T08:48:01.161Z,10.7
2023-06-21T08:49:01.041Z,10.7
2023-06-21T08:50:01.018Z,10.7
2023-06-21T08:51:01.016Z,11
2023-06-21T08:52:01.071Z,11.2
2023-06-21T08:53:01.074Z,10.7
2023-06-21T08:54:01.076Z,10.5
2023-06-21T08:55:01.088Z,10.1
2023-06-21T08:56:02.994Z,9.9
2023-06-21T08:57:01.510Z,10.1
2023-06-21T08:58:01.119Z,10.5
2023-06-21T08:59:01.127Z,10.9
2023-06-21T09:00:01.125Z,10.8
2023-06-21T09:01:04.311Z,10.8
2023-06-21T09:02:03.999Z,10.5
2023-06-21T09:03:01.237Z,10.7
2023-06-21T09:04:01.241Z,10.5
2023-06-21T09:05:01.084Z,10.6
2023-06-21T09:06:06.504Z,10.6
2023-06-21T09:07:02.141Z,10
2023-06-21T09:08:04.608Z,10.3
2023-06-21T09:09:01.157Z,10.5
2023-06-21T09:10:00.884Z,10.6
2023-06-21T09:11:09.365Z,10.6
2023-06-21T09:12:01.097Z,10.7
2023-06-21T09:13:01.363Z,11
2023-06-21T09:14:01.128Z,10.5
2023-06-21T09:15:01.124Z,10.6
2023-06-21T09:16:11.448Z,10.8
2023-06-21T09:17:01.662Z,10.2
2023-06-21T09:18:01.834Z,10.3
2023-06-21T09:19:02.336Z,10.1
2023-06-21T09:20:01.448Z,10.1
2023-06-21T09:21:14.237Z,10.3
2023-06-21T09:22:01.731Z,10
2023-06-21T09:23:02.000Z,9.8
2023-06-21T09:24:01.489Z,9.5
2023-06-21T09:25:01.488Z,9.6
2023-06-21T09:26:16.751Z,9.5
2023-06-21T09:27:01.092Z,9.6
2023-06-21T09:28:01.095Z,10.1
2023-06-21T09:29:01.108Z,9.2
2023-06-21T09:30:16.922Z,9.1
2023-06-21T09:31:01.132Z,8.9
2023-06-21T09:32:01.122Z,9.2
2023-06-21T09:33:01.245Z,9.1
2023-06-21T09:34:01.454Z,9.1
2023-06-21T09:35:01.299Z,9.2
2023-06-21T09:36:02.059Z,9.2
2023-06-21T09:37:01.046Z,9.2
2023-06-21T09:38:01.101Z,8.8
2023-06-21T09:39:01.043Z,8.3
2023-06-21T09:40:01.064Z,8.2
2023-06-21T09:41:01.098Z,8.2
2023-06-21T09:42:01.082Z,8.4
2023-06-21T09:43:01.146Z,8
2023-06-21T09:44:01.112Z,7.7
2023-06-21T09:45:01.715Z,7.6
2023-06-21T09:46:01.523Z,7.9
2023-06-21T09:47:01.125Z,8.2
2023-06-21T09:48:01.288Z,8.1
2023-06-21T09:49:01.252Z,8.1
2023-06-21T09:50:01.036Z,8.3
2023-06-21T09:51:01.046Z,7.5
2023-06-21T09:52:01.407Z,7.4
2023-06-21T09:53:01.270Z,7.4
2023-06-21T09:54:01.238Z,7.5
2023-06-21T09:55:01.259Z,7.5
2023-06-21T09:56:01.401Z,7.2
2023-06-21T09:57:01.036Z,7.3
2023-06-21T09:58:01.470Z,6.9
2023-06-21T09:59:01.113Z,6.5
2023-06-21T10:00:01.167Z,6.2
2023-06-21T10:01:02.140Z,6.7
2023-06-21T10:02:02.150Z,6.1
2023-06-21T10:03:01.605Z,5.9
2023-06-21T10:04:01.272Z,5.7
2023-06-21T10:05:01.248Z,5.8
2023-06-21T10:06:01.999Z,5.9
2023-06-21T10:07:01.912Z,6.1
2023-06-21T10:08:00.671Z,5.8
2023-06-21T10:09:00.454Z,5.7
2023-06-21T10:10:00.145Z,5.8
2023-06-21T10:10:59.835Z,5.8
2023-06-21T10:12:01.469Z,6.3
2023-06-21T10:13:01.288Z,6.1
2023-06-21T10:14:02.117Z,5.9
2023-06-21T10:15:01.227Z,6
2023-06-21T10:16:01.085Z,5.6
2023-06-21T10:17:01.114Z,5.1
2023-06-21T10:18:06.001Z,4.8
2023-06-21T10:19:01.092Z,4.7
2023-06-21T10:20:01.181Z,4.4
2023-06-21T10:21:01.036Z,4.7
2023-06-21T10:22:01.137Z,4.7
2023-06-21T10:23:01.433Z,4.1
2023-06-21T10:24:01.061Z,4
2023-06-21T10:25:02.573Z,3.8
2023-06-21T10:26:01.478Z,3.7
2023-06-21T10:27:01.093Z,3.3
2023-06-21T10:28:01.234Z,3.4
2023-06-21T10:29:01.227Z,3.1
2023-06-21T10:30:01.205Z,3.2
2023-06-21T10:31:01.135Z,2.2
2023-06-21T10:32:01.543Z,2.1
2023-06-21T10:33:02.202Z,2
2023-06-21T10:34:01.435Z,1
2023-06-21T10:35:01.856Z,1
2023-06-21T10:36:01.051Z,1
2023-06-21T10:37:01.079Z,1
2023-06-21T10:38:01.061Z,1
2023-06-21T10:39:01.350Z,1
2023-06-21T10:40:10.597Z,1
2023-06-21T10:41:01.105Z,1
2023-06-21T10:42:01.216Z,1
2023-06-21T10:43:01.099Z,1
2023-06-21T10:44:01.098Z,1
2023-06-21T10:45:01.043Z,1
2023-06-21T10:46:00.807Z,1
2023-06-21T10:47:01.110Z,1
2023-06-21T10:48:01.268Z,1
2023-06-21T10:49:01.129Z,1
2023-06-21T10:50:01.036Z,1
2023-06-21T10:51:01.374Z,1
2023-06-21T10:52:01.910Z,1
2023-06-21T10:53:01.080Z,1
2023-06-21T10:54:01.364Z,1
2023-06-21T10:55:01.362Z,1
2023-06-21T10:56:02.085Z,1
2023-06-21T10:57:04.722Z,1
2023-06-21T10:58:02.634Z,1
2023-06-21T10:59:01.775Z,1
2023-06-21T11:00:01.233Z,2
2023-06-21T11:01:04.148Z,1
2023-06-21T11:02:06.189Z,1
2023-06-21T11:03:01.216Z,1
2023-06-21T11:04:01.104Z,1
2023-06-21T11:05:01.205Z,1
2023-06-21T11:06:00.932Z,1
2023-06-21T11:07:09.750Z,1
2023-06-21T11:08:01.069Z,1
2023-06-21T11:09:01.176Z,1
2023-06-21T11:10:01.415Z,1
2023-06-21T11:11:01.409Z,1
2023-06-21T11:12:11.967Z,1
2023-06-21T11:13:02.206Z,1
2023-06-21T11:14:01.177Z,1
2023-06-21T11:15:01.375Z,1
2023-06-21T11:16:01.051Z,1
2023-06-21T11:17:14.855Z,1
2023-06-21T11:18:01.059Z,1
2023-06-21T11:19:01.178Z,1
2023-06-21T11:20:01.130Z,1
2023-06-21T11:21:01.113Z,1
2023-06-21T11:22:16.776Z,1
2023-06-21T11:23:01.069Z,1
2023-06-21T11:24:01.074Z,1
2023-06-21T11:25:01.103Z,1
2023-06-21T11:26:00.621Z,1
2023-06-21T11:27:00.314Z,1
2023-06-21T11:28:00.092Z,1
2023-06-21T11:28:59.806Z,1
2023-06-21T11:30:02.508Z,1
2023-06-21T11:31:02.304Z,1
2023-06-21T11:32:01.144Z,1
2023-06-21T11:33:01.207Z,1
2023-06-21T11:34:01.258Z,1
2023-06-21T11:35:01.230Z,1
2023-06-21T11:36:01.975Z,1
2023-06-21T11:37:01.058Z,1
2023-06-21T11:38:01.472Z,1
2023-06-21T11:39:01.213Z,1
2023-06-21T11:40:02.241Z,1
2023-06-21T11:41:02.032Z,1
2023-06-21T11:42:02.039Z,1
2023-06-21T11:43:01.142Z,1
2023-06-21T11:44:01.247Z,1
2023-06-21T11:45:01.914Z,1
2023-06-21T11:46:01.436Z,1
2023-06-21T11:47:01.336Z,1
2023-06-21T11:48:02.275Z,1
2023-06-21T11:49:03.489Z,1
2023-06-21T11:50:01.403Z,1
2023-06-21T11:51:01.069Z,1
2023-06-21T11:52:00.729Z,1
2023-06-21T11:53:00.834Z,1
2023-06-21T11:54:02.564Z,1
2023-06-21T11:55:01.319Z,1
2023-06-21T11:56:01.145Z,1
2023-06-21T11:57:01.027Z,1
2023-06-21T11:58:01.161Z,1
2023-06-21T11:59:01.153Z,1
2023-06-21T12:00:01.925Z,1
2023-06-21T12:01:02.192Z,1
2023-06-21T12:02:02.126Z,1
2023-06-21T12:03:03.103Z,1
2023-06-21T12:04:01.321Z,1
2023-06-21T12:05:01.482Z,1
2023-06-21T12:06:02.076Z,1
2023-06-21T12:07:01.182Z,1
2023-06-21T12:08:01.233Z,1
2023-06-21T12:09:01.286Z,1
2023-06-21T12:10:04.111Z,1
2023-06-21T12:11:02.115Z,1
2023-06-21T12:12:01.457Z,1
2023-06-21T12:13:01.913Z,1
2023-06-21T12:14:01.961Z,1
2023-06-21T12:15:01.149Z,1
2023-06-21T12:16:01.173Z,1
2023-06-21T12:17:02.104Z,1
2023-06-21T12:18:02.495Z,1
2023-06-21T12:19:01.334Z,1
2023-06-21T12:20:02.071Z,1
2023-06-21T12:21:02.266Z,1
2023-06-21T12:22:01.135Z,1
2023-06-21T12:23:01.217Z,1
2023-06-21T12:24:01.209Z,1
2023-06-21T12:25:01.169Z,1
2023-06-21T12:26:01.228Z,1
2023-06-21T12:27:01.273Z,1
2023-06-21T12:28:01.635Z,1
2023-06-21T12:29:01.893Z,1
2023-06-21T12:30:01.122Z,1
2023-06-21T12:31:00.924Z,1
2023-06-21T12:32:01.151Z,1
2023-06-21T12:33:01.017Z,1
2023-06-21T12:34:01.145Z,1
2023-06-21T12:35:01.183Z,1
2023-06-21T12:36:01.165Z,1
2023-06-21T12:37:01.171Z,1
2023-06-21T12:38:00.853Z,1
2023-06-21T12:39:01.593Z,1
2023-06-21T12:40:01.175Z,1
2023-06-21T12:41:01.591Z,1
2023-06-21T12:42:01.262Z,1
2023-06-21T12:43:04.305Z,1
2023-06-21T12:44:03.066Z,1
2023-06-21T12:45:02.705Z,1
2023-06-21T12:46:02.749Z,1
2023-06-21T12:47:01.915Z,1
2023-06-21T12:48:07.724Z,1
2023-06-21T12:49:01.133Z,1
2023-06-21T12:50:01.186Z,1
2023-06-21T12:51:02.385Z,1
2023-06-21T12:52:02.140Z,1
2023-06-21T12:53:11.737Z,1
2023-06-21T12:54:02.789Z,1
2023-06-21T12:55:01.577Z,1
2023-06-21T12:56:01.270Z,1
2023-06-21T12:57:02.014Z,1
2023-06-21T12:58:14.156Z,1
2023-06-21T12:59:01.149Z,1
2023-06-21T13:00:01.207Z,1
2023-06-21T13:01:02.034Z,1
2023-06-21T13:02:02.086Z,1
2023-06-21T13:03:17.390Z,1
2023-06-21T13:04:01.366Z,1
2023-06-21T13:05:01.152Z,1
2023-06-21T13:06:01.159Z,1
2023-06-21T13:07:01.342Z,1
2023-06-21T13:08:01.195Z,1
2023-06-21T13:09:01.292Z,1
2023-06-21T13:10:02.966Z,1
2023-06-21T13:11:02.108Z,1
2023-06-21T13:12:01.238Z,1
2023-06-21T13:13:01.231Z,1
2023-06-21T13:14:01.224Z,1
2023-06-21T13:15:01.158Z,1
2023-06-21T13:16:01.128Z,1
2023-06-21T13:17:01.137Z,1
2023-06-21T13:18:01.194Z,1
2023-06-21T13:19:01.406Z,1
2023-06-21T13:20:01.565Z,1
2023-06-21T13:21:01.288Z,1
2023-06-21T13:22:01.137Z,1
2023-06-21T13:23:01.344Z,1
2023-06-21T13:24:01.203Z,1
2023-06-21T13:25:04.244Z,1
2023-06-21T13:26:02.585Z,1
2023-06-21T13:27:02.013Z,1
2023-06-21T13:28:01.642Z,1
2023-06-21T13:29:01.302Z,1
2023-06-21T13:30:01.245Z,1
2023-06-21T13:31:03.102Z,1
2023-06-21T13:32:01.740Z,1
2023-06-21T13:33:01.171Z,1
2023-06-21T13:34:01.162Z,1
2023-06-21T13:35:01.159Z,1
2023-06-21T13:36:01.545Z,1
2023-06-21T13:37:01.589Z,1
2023-06-21T13:38:01.329Z,1
2023-06-21T13:39:02.028Z,1
2023-06-21T13:40:01.204Z,1
2023-06-21T13:41:01.199Z,1
2023-06-21T13:42:01.181Z,1
2023-06-21T13:43:01.431Z,1
2023-06-21T13:44:01.151Z,1